Weather at Martinamatos Airfield

Public forecast

Using degrees Celsius for public forecast. Weather courtesy of forecast.io.

Closest aviation weather report (METAR) to Martinamatos Airfield

Closest report is Getafe Air Base, 28.7 nm (53.1 km) ENE.

2024/06/21 05:00 (retrieved 29 minutes ago)

LEGT 210500Z AUTO VRB02KT CAVOK 15/10 Q1021

Closest aviation forecast (TAF) to Martinamatos Airfield

Forecast is more than 6 hours old.

Closest forecast is Valladolid Airport, 99.7 nm (184.7 km) NNW.

2024/06/20 21:27 (retrieved 8 hours ago)

TAF TAF LEVD 202000Z 2021/2121 VRB05KT CAVOK TX24/2115Z TN10/2105Z TEMPO 2021/2022 4000 SHRA FEW040TCU SCT045CB PROB40 TEMPO 2022/2107 2500 BR BKN004 BKN006